JAP weather

Chacarita Airport
Puntarenas, Puntarenas, Costa Rica

Public forecast

Using degrees Celsius for public forecast. Weather courtesy of forecast.io.

Closest aviation weather report (METAR) to Chacarita Airport

Report is more than 6 hours old.

Closest report is Playa P├íjaros Airport, 8.7 nm (16.2 km) SSE. Retrieved 2019/12/16 14:00 UTC (7 months ago):

MRPP 161400Z 10017KT 9999 FEW025 28/22 Q1016 A3002

Closest aviation forecast (TAF) to Chacarita Airport

Closest forecast is Juan Santamaria International Airport, 33.4 nm (61.8 km) E. Retrieved 2020/07/07 12:06 UTC (1 hour ago):

TAF MROC 071100Z 0712/0812 09009KT 9999 FEW030 TX28/0719Z TN18/0811Z TEMPO 0721/0801 25007KT 5000 BR BKN020